Terminal Aerodrome Forecast
Issued by NWS

Home | Current Version | Previous Version | Text Only | Print | Product List | Glossary On
Versions: 1 2 3 4 5 6 7 8 9 10 11 12 13 14 15 16 17 18 19 20 21 22 23 24 25 26 27 28 29 30 31 32 33 34 35 36 37
684
FTUS45 KBOU 252329
TAFBJC
TAF
KBJC 252329Z 2600/2624 11010KT P6SM FEW150 BKN220
     FM260200 18009KT P6SM SCT100 BKN150
     FM260700 30008KT P6SM BKN050 OVC080
     FM261100 34006KT P6SM BKN030 OVC050
      TEMPO 2612/2616 4SM -SHRA OVC020
     FM262000 03006KT P6SM SCT040 BKN060=

USA.gov is the U.S. government's official web portal to all federal, state and local government web resources and services.